Item Display Status Serial CT Sensor

Mooring Depth: 1 m

 

Deployed Sensor

  • Serial Number: 12914
  • NDBC Property Number: 39267
  • Start Date: 2/25/2015 (14:50:36 Z)
  • End Date: 6/12/2017 (14:23:00 Z)
Water Temperature [°C]     6 entries per hour
Showing data from 1/3/2017 (20:00:00 Z) to 1/2/2017 (00:00:01 Z)
Previous Next [ Day | 3-Days | 7-Days ]
First Last
Prev [ Day | 3-Days | 7-Days ] Next
First Last

Start Time:     :
End Time:     :     
Time (in GMT) :00 :50 :40 :30 :20 :10
Previous Next [ Day | 3-Days | 7-Days ]
First Last
Prev [ Day | 3-Days | 7-Days ] Next
First Last


123 => good data
MM => data is determined as missing
-- => data not received/configured
Back to Top Back to Top
1/3/2017 20:00 to 19:10 25.925 25.923 25.916 25.925 25.929 25.929
1/3/2017 19:00 to 18:10 25.915 25.895 25.880 25.859 25.844 25.838
1/3/2017 18:00 to 17:10 25.832 25.824 25.832 25.832 25.812 25.800
1/3/2017 17:00 to 16:10 25.774 25.756 25.751 25.722 25.712 25.695
1/3/2017 16:00 to 15:10 25.673 25.659 25.648 25.637 25.620 25.606
1/3/2017 15:00 to 14:10 25.595 25.592 25.593 25.595 25.594 25.582
1/3/2017 14:00 to 13:10 25.576 25.566 25.558 25.545 25.538 25.521
1/3/2017 13:00 to 12:10 25.514 25.502 25.487 25.481 25.461 25.444
1/3/2017 12:00 to 11:10 25.435 25.431 25.430 25.433 25.421 25.431
1/3/2017 11:00 to 10:10 25.419 25.419 25.405 25.400 25.387 25.393
1/3/2017 10:00 to 9:10 25.389 25.385 25.392 25.387 25.374 25.364
1/3/2017 09:00 to 8:10 25.357 25.347 25.343 25.337 25.342 25.323
1/3/2017 08:00 to 7:10 25.308 25.297 25.297 25.302 25.287 25.330
1/3/2017 07:00 to 6:10 25.336 25.346 25.338 25.329 25.324 25.329
1/3/2017 06:00 to 5:10 25.324 25.343 25.347 25.359 25.360 25.354
1/3/2017 05:00 to 4:10 25.357 25.371 25.370 25.360 25.388 25.387
1/3/2017 04:00 to 3:10 25.380 25.386 25.382 25.368 25.357 25.373
1/3/2017 03:00 to 2:10 25.335 25.329 25.352 25.359 25.337 25.324
1/3/2017 02:00 to 1:10 25.324 25.332 25.365 25.350 25.373 25.358
1/3/2017 01:00 to 0:10 25.347 25.309 25.361 25.346 25.323 25.309
1/3/2017 00:00 to 23:10 25.316 25.319 25.316 25.293 25.288 25.337
1/2/2017 23:00 to 22:10 25.429 25.350 25.367 25.343 25.381 25.427
1/2/2017 22:00 to 21:10 25.301 25.376 25.347 25.357 25.319 25.265
1/2/2017 21:00 to 20:10 25.260 25.266 25.277 25.260 25.199 25.232
1/2/2017 20:00 to 19:10 25.213 25.159 25.177 25.123 25.082 25.082
1/2/2017 19:00 to 18:10 25.079 25.066 25.028 25.053 25.014 24.999
1/2/2017 18:00 to 17:10 24.971 24.957 24.950 24.920 24.898 24.901
1/2/2017 17:00 to 16:10 24.881 24.862 24.855 24.843 24.824 24.821
1/2/2017 16:00 to 15:10 24.827 24.815 24.809 24.808 24.809 24.806
1/2/2017 15:00 to 14:10 -- -- -- -- -- --
1/2/2017 14:00 to 13:10 24.817 24.830 24.846 24.850 24.852 24.859
1/2/2017 13:00 to 12:10 24.864 24.868 24.877 24.878 24.877 24.868
1/2/2017 12:00 to 11:10 24.865 24.856 24.876 24.880 24.873 24.860
1/2/2017 11:00 to 10:10 24.873 24.873 24.871 24.870 24.878 24.873
1/2/2017 10:00 to 9:10 24.878 24.876 24.891 24.902 24.916 24.906
1/2/2017 09:00 to 8:10 24.931 24.957 24.949 24.951 24.957 24.970
1/2/2017 08:00 to 7:10 24.989 24.977 24.991 25.005 24.990 24.990
1/2/2017 07:00 to 6:10 24.998 24.989 24.994 25.005 25.002 25.000
1/2/2017 06:00 to 5:10 25.021 25.007 25.034 25.019 25.032 25.020
1/2/2017 05:00 to 4:10 25.044 25.056 25.047 25.036 25.053 25.062
1/2/2017 04:00 to 3:10 25.057 25.069 25.056 25.070 25.071 25.087
1/2/2017 03:00 to 2:10 25.078 25.070 25.080 25.117 25.092 25.095
1/2/2017 02:00 to 1:10 25.096 25.108 25.130 25.149 25.119 25.126
1/2/2017 01:00 to 0:10 25.134 25.123 25.165 25.215 25.227 25.175

 

 

 

Conductivity [S/m]     6 entries per hour
Showing data from 1/3/2016 (02:50:00 Z) to 1/2/2016 (00:00:01 Z)
Previous Next [ Day | 3-Days | 7-Days ]
First Last
Prev [ Day | 3-Days | 7-Days ] Next
First Last

Start Time:     :
End Time:     :     
Time (in GMT) :00 :50 :40 :30 :20 :10
Previous Next [ Day | 3-Days | 7-Days ]
First Last
Prev [ Day | 3-Days | 7-Days ] Next
First Last


123 => good data
MM => data is determined as missing
-- => data not received/configured
Back to Top Back to Top
1/3/2016 03:00 to 2:10 -- 5.47725 5.47391 5.47341 5.47081 5.47149
1/3/2016 02:00 to 1:10 5.45491 5.44757 5.46279 5.46153 5.46234 5.46679
1/3/2016 01:00 to 0:10 5.46442 5.46357 5.48746 5.48584 5.48388 5.48171
1/3/2016 00:00 to 23:10 5.49434 5.49798 5.49542 5.49594 5.49418 5.50032
1/2/2016 23:00 to 22:10 5.50002 5.51234 5.51067 5.51344 5.51332 5.51455
1/2/2016 22:00 to 21:10 5.51475 5.51397 5.51152 5.51405 5.51350 5.51054
1/2/2016 21:00 to 20:10 5.51094 5.50967 5.51314 5.51637 5.51899 5.51822
1/2/2016 20:00 to 19:10 5.51715 5.51712 5.51509 5.51887 5.52095 5.52314
1/2/2016 19:00 to 18:10 5.52285 5.52239 5.52177 5.52117 5.52139 5.52058
1/2/2016 18:00 to 17:10 5.51969 5.52020 5.52030 5.51990 5.52032 5.52124
1/2/2016 17:00 to 16:10 5.52021 5.52052 5.52008 5.51837 5.51901 5.52143
1/2/2016 16:00 to 15:10 5.52023 5.52037 5.52123 5.51933 5.52326 5.52400
1/2/2016 15:00 to 14:10 5.52356 5.52522 5.52329 5.52115 5.52321 5.52450
1/2/2016 14:00 to 13:10 5.52591 5.52606 5.52545 5.52605 5.52130 5.52770
1/2/2016 13:00 to 12:10 5.52690 5.52919 5.52530 5.52746 5.52616 5.52760
1/2/2016 12:00 to 11:10 5.52621 5.52501 5.52363 5.52303 5.52651 5.52513
1/2/2016 11:00 to 10:10 5.52198 5.52243 5.52368 5.52515 5.52672 5.52338
1/2/2016 10:00 to 9:10 5.52670 5.52206 5.52779 5.52851 5.52625 5.52375
1/2/2016 09:00 to 8:10 5.52084 5.52206 5.53071 5.53046 5.53601 5.53804
1/2/2016 08:00 to 7:10 5.53338 5.53362 5.53270 5.53292 5.53021 5.53126
1/2/2016 07:00 to 6:10 5.53018 5.52853 5.52686 5.52888 5.52824 5.52800
1/2/2016 06:00 to 5:10 5.52731 5.52627 5.52736 5.52815 5.52681 5.52553
1/2/2016 05:00 to 4:10 5.52173 5.52170 5.51994 5.52202 5.52455 5.51873
1/2/2016 04:00 to 3:10 5.51670 5.51643 5.51324 5.51322 5.51249 5.50746
1/2/2016 03:00 to 2:10 5.51030 5.51271 5.51209 5.51209 5.50976 5.51209
1/2/2016 02:00 to 1:10 5.50817 5.50899 5.50823 5.50775 5.50572 5.50469
1/2/2016 01:00 to 0:10 5.50412 5.49609 5.49725 5.48633 5.50707 5.50525

 

 

 

Salinity [psu]     6 entries per hour
Showing data from 1/3/2016 (02:50:00 Z) to 1/2/2016 (00:00:01 Z)
Previous Next [ Day | 3-Days | 7-Days ]
First Last
Prev [ Day | 3-Days | 7-Days ] Next
First Last

Start Time:     :
End Time:     :     
Time (in GMT) :00 :50 :40 :30 :20 :10
Previous Next [ Day | 3-Days | 7-Days ]
First Last
Prev [ Day | 3-Days | 7-Days ] Next
First Last


123 => good data
MM => data is determined as missing
-- => data not received/configured
Back to Top Back to Top
1/3/2016 03:00 to 2:10 -- 33.48 33.49 33.47 33.41 33.44
1/3/2016 02:00 to 1:10 33.37 33.36 33.41 33.38 33.38 33.39
1/3/2016 01:00 to 0:10 33.39 33.38 33.49 33.48 33.47 33.46
1/3/2016 00:00 to 23:10 33.51 33.53 33.52 33.53 33.51 33.54
1/2/2016 23:00 to 22:10 33.54 33.60 33.59 33.60 33.61 33.61
1/2/2016 22:00 to 21:10 33.61 33.60 33.59 33.60 33.60 33.59
1/2/2016 21:00 to 20:10 33.59 33.58 33.59 33.61 33.62 33.62
1/2/2016 20:00 to 19:10 33.62 33.61 33.60 33.62 33.63 33.64
1/2/2016 19:00 to 18:10 33.64 33.64 33.64 33.64 33.64 33.64
1/2/2016 18:00 to 17:10 33.64 33.64 33.64 33.64 33.64 33.65
1/2/2016 17:00 to 16:10 33.64 33.65 33.64 33.64 33.64 33.65
1/2/2016 16:00 to 15:10 33.65 33.65 33.65 33.64 33.66 33.66
1/2/2016 15:00 to 14:10 33.66 33.67 33.66 33.65 33.67 33.67
1/2/2016 14:00 to 13:10 33.67 33.67 33.67 33.67 33.65 33.68
1/2/2016 13:00 to 12:10 33.68 33.68 33.68 33.68 33.68 33.68
1/2/2016 12:00 to 11:10 33.67 33.67 33.67 33.66 33.67 33.67
1/2/2016 11:00 to 10:10 33.66 33.66 33.66 33.67 33.67 33.66
1/2/2016 10:00 to 9:10 33.67 33.65 33.68 33.68 33.67 33.65
1/2/2016 09:00 to 8:10 33.64 33.64 33.68 33.68 33.71 33.72
1/2/2016 08:00 to 7:10 33.71 33.71 33.70 33.70 33.70 33.70
1/2/2016 07:00 to 6:10 33.69 33.69 33.68 33.69 33.69 33.69
1/2/2016 06:00 to 5:10 33.68 33.68 33.68 33.68 33.68 33.68
1/2/2016 05:00 to 4:10 33.66 33.66 33.66 33.66 33.67 33.65
1/2/2016 04:00 to 3:10 33.65 33.64 33.63 33.63 33.62 33.61
1/2/2016 03:00 to 2:10 33.62 33.63 33.62 33.62 33.62 33.62
1/2/2016 02:00 to 1:10 33.61 33.61 33.61 33.60 33.60 33.59
1/2/2016 01:00 to 0:10 33.58 33.55 33.54 33.46 33.59 33.58